Time;durP1;ratioP1;P1;durP2;ratioP2;P2;SDS_P1;SDS_P2;PMS_P1;PMS_P2;Temp;Humidity;BMP_temperature;BMP_pressure;BME280_temperature;BME280_humidity;BME280_pressure;Samples;Min_cycle;Max_cycle;Signal;HPM_P1;HPM_P2
2023/04/21 00:01:46;;;;;;;13.80;9.50;;;22.70;63.80;;;;;;222058;1266;25852;-49
2023/04/21 00:06:51;;;;;;;9.60;8.50;;;22.60;63.70;;;;;;222071;1266;24226;-49
2023/04/21 00:11:56;;;;;;;8.70;7.90;;;22.50;63.90;;;;;;222206;1269;22504;-47
2023/04/21 00:17:00;;;;;;;12.30;8.40;;;22.50;64.00;;;;;;223230;1254;22515;-48
2023/04/21 00:22:07;;;;;;;12.00;8.70;;;22.50;63.90;;;;;;222156;1262;22512;-44
2023/04/21 00:27:12;;;;;;;9.00;7.50;;;22.40;63.80;;;;;;222211;1267;23715;-50
2023/04/21 00:32:16;;;;;;;11.50;7.90;;;22.40;63.80;;;;;;222222;1269;22504;-51
2023/04/21 00:37:20;;;;;;;9.90;7.30;;;22.30;63.70;;;;;;222437;1264;22518;-51
2023/04/21 00:42:25;;;;;;;10.90;6.60;;;22.30;63.10;;;;;;221900;1264;24232;-46
2023/04/21 00:47:30;;;;;;;8.50;7.30;;;22.30;63.50;;;;;;222258;1250;22531;-49
2023/04/21 00:52:35;;;;;;;9.30;8.00;;;22.20;63.80;;;;;;222295;1269;24180;-47
2023/04/21 00:57:39;;;;;;;11.90;7.70;;;22.20;63.40;;;;;;222340;1264;23182;-48
2023/04/21 01:02:44;;;;;;;10.30;7.90;;;22.20;63.30;;;;;;222354;1266;23619;-45
2023/04/21 01:07:50;;;;;;;8.20;6.80;;;22.20;63.20;;;;;;222319;1264;24206;-49
2023/04/21 01:12:54;;;;;;;8.80;7.40;;;22.10;63.30;;;;;;222442;1266;25290;-48
2023/04/21 01:17:58;;;;;;;8.50;7.10;;;22.10;63.10;;;;;;222383;1267;25481;-47
2023/04/21 01:23:02;;;;;;;7.10;6.40;;;22.10;63.10;;;;;;222136;1267;22520;-48
2023/04/21 01:28:07;;;;;;;8.30;7.20;;;22.10;63.40;;;;;;222588;1266;24207;-50
2023/04/21 01:33:11;;;;;;;8.20;6.60;;;22.10;63.40;;;;;;222259;1269;22516;-48
2023/04/21 01:38:17;;;;;;;8.00;7.20;;;22.10;63.30;;;;;;222238;1269;22513;-51
2023/04/21 01:43:24;;;;;;;7.60;6.80;;;22.00;63.30;;;;;;222396;1267;22650;-47
2023/04/21 01:48:30;;;;;;;7.40;6.40;;;22.00;63.20;;;;;;222290;1264;22643;-48
2023/04/21 01:54:13;;;;;;;8.20;6.50;;;22.00;63.20;;;;;;222036;1269;22629;-47
2023/04/21 01:59:21;;;;;;;7.40;6.30;;;22.00;63.00;;;;;;221613;1272;24302;-45
2023/04/21 02:04:25;;;;;;;10.70;6.20;;;22.00;63.00;;;;;;221828;1269;24342;-46
2023/04/21 02:09:30;;;;;;;8.90;6.60;;;21.90;62.90;;;;;;221597;1271;22513;-50
2023/04/21 02:14:36;;;;;;;7.50;6.50;;;22.00;62.70;;;;;;221687;1264;25317;-45
2023/04/21 02:19:42;;;;;;;7.50;6.30;;;21.90;63.00;;;;;;221853;1257;22517;-46
2023/04/21 02:24:47;;;;;;;10.50;6.80;;;21.90;63.30;;;;;;221582;1266;22517;-46
2023/04/21 02:29:51;;;;;;;7.40;6.20;;;21.90;63.00;;;;;;221985;1254;22739;-47
2023/04/21 02:34:55;;;;;;;6.90;6.20;;;21.90;63.30;;;;;;222326;1269;25315;-46
2023/04/21 02:39:59;;;;;;;8.70;6.30;;;21.90;63.00;;;;;;222444;1256;24189;-47
2023/04/21 02:45:04;;;;;;;7.20;6.20;;;21.80;62.80;;;;;;222187;1264;22527;-46
2023/04/21 02:50:08;;;;;;;7.30;6.40;;;21.80;62.80;;;;;;222330;1258;22511;-47
2023/04/21 02:55:12;;;;;;;6.70;6.00;;;21.80;62.70;;;;;;222276;1268;24402;-49
2023/04/21 03:00:17;;;;;;;7.80;6.20;;;21.80;62.80;;;;;;221951;1267;22518;-49
2023/04/21 03:05:23;;;;;;;6.30;5.60;;;21.80;62.80;;;;;;222291;1263;22564;-45
2023/04/21 03:10:27;;;;;;;7.40;6.70;;;21.80;62.70;;;;;;222384;1266;22524;-50
2023/04/21 03:15:31;;;;;;;7.60;6.00;;;21.80;63.20;;;;;;222856;1263;24232;-49
2023/04/21 03:20:37;;;;;;;7.00;6.20;;;21.70;62.60;;;;;;222140;1248;22515;-51
2023/04/21 03:25:41;;;;;;;6.40;5.90;;;21.70;63.20;;;;;;222029;1263;24183;-48
2023/04/21 03:30:45;;;;;;;6.80;6.10;;;21.70;62.60;;;;;;222277;1254;22614;-48
2023/04/21 03:35:49;;;;;;;6.40;5.70;;;21.70;62.60;;;;;;222144;1254;24042;-47
2023/04/21 03:40:53;;;;;;;5.70;5.20;;;21.70;62.60;;;;;;222427;1256;23964;-46
2023/04/21 03:45:57;;;;;;;6.10;5.50;;;21.70;62.70;;;;;;222471;1254;22712;-50
2023/04/21 03:51:03;;;;;;;6.70;6.10;;;21.70;62.70;;;;;;222204;1264;22511;-47
2023/04/21 03:56:08;;;;;;;6.10;5.30;;;21.60;62.60;;;;;;222433;1254;25606;-51
2023/04/21 04:01:12;;;;;;;6.90;5.50;;;21.60;62.60;;;;;;222351;1254;22618;-46
2023/04/21 04:06:16;;;;;;;7.30;5.40;;;21.60;62.70;;;;;;222172;1254;23597;-49
2023/04/21 04:11:20;;;;;;;6.20;5.60;;;21.90;62.60;;;;;;222314;1268;22514;-45
2023/04/21 04:16:24;;;;;;;5.80;5.30;;;22.20;61.70;;;;;;222006;1264;22541;-48
2023/04/21 04:21:30;;;;;;;5.80;4.90;;;22.40;61.20;;;;;;222488;1264;22570;-48
2023/04/21 04:26:34;;;;;;;6.10;5.40;;;22.70;60.50;;;;;;222204;1264;22556;-50
2023/04/21 04:31:38;;;;;;;6.30;5.20;;;22.90;60.00;;;;;;222230;1264;22518;-48
2023/04/21 04:36:43;;;;;;;6.30;5.60;;;23.00;59.60;;;;;;222071;1261;23918;-47
2023/04/21 04:41:47;;;;;;;5.50;4.90;;;23.10;59.30;;;;;;222314;1254;25334;-54
2023/04/21 04:46:51;;;;;;;7.60;5.50;;;23.20;59.10;;;;;;222672;1254;24202;-46
2023/04/21 04:51:55;;;;;;;5.70;5.20;;;23.20;59.20;;;;;;222131;1261;22534;-48
2023/04/21 04:56:59;;;;;;;6.30;5.40;;;23.20;59.10;;;;;;222368;1264;22543;-49
2023/04/21 05:02:03;;;;;;;5.80;5.20;;;23.20;59.10;;;;;;222392;1264;22524;-45
2023/04/21 05:07:08;;;;;;;5.40;4.90;;;23.20;59.00;;;;;;222415;1254;22628;-49
2023/04/21 05:12:12;;;;;;;6.30;5.20;;;23.30;59.20;;;;;;222368;1248;24322;-46
2023/04/21 05:17:16;;;;;;;5.20;4.70;;;23.30;58.70;;;;;;222213;1264;22509;-48
2023/04/21 05:22:20;;;;;;;5.00;4.60;;;23.40;58.80;;;;;;222357;1264;22513;-47
2023/04/21 05:27:24;;;;;;;5.50;4.90;;;23.30;58.90;;;;;;222215;1263;24311;-48
2023/04/21 05:32:28;;;;;;;5.90;5.40;;;23.20;59.10;;;;;;222034;1264;22542;-46
2023/04/21 05:37:33;;;;;;;5.40;4.70;;;23.20;59.20;;;;;;221993;1264;25262;-44
2023/04/21 05:42:37;;;;;;;6.50;5.10;;;23.10;59.60;;;;;;222196;1262;22644;-51
2023/04/21 05:47:41;;;;;;;14.80;5.90;;;23.00;60.50;;;;;;222253;1256;22514;-51
2023/04/21 05:52:45;;;;;;;9.00;5.60;;;23.10;62.00;;;;;;222271;1266;24250;-47
2023/04/21 05:57:49;;;;;;;7.70;5.30;;;23.00;61.10;;;;;;222362;1254;22650;-52
2023/04/21 06:02:53;;;;;;;10.00;5.50;;;23.10;62.80;;;;;;221911;1264;22786;-48
2023/04/21 06:07:57;;;;;;;16.50;5.70;;;23.10;63.00;;;;;;222318;1257;25055;-54
2023/04/21 06:13:01;;;;;;;10.50;5.10;;;23.10;62.10;;;;;;222292;1253;25344;-50
2023/04/21 06:18:05;;;;;;;10.00;5.80;;;23.10;62.90;;;;;;222072;1254;22619;-48
2023/04/21 06:23:09;;;;;;;7.60;5.30;;;23.10;62.10;;;;;;222338;1264;22511;-51
2023/04/21 06:28:14;;;;;;;12.00;8.00;;;23.10;63.00;;;;;;222173;1254;206125;-47
2023/04/21 06:33:18;;;;;;;8.20;5.50;;;23.00;62.50;;;;;;222372;1263;22542;-46
2023/04/21 06:38:22;;;;;;;13.50;5.20;;;23.00;62.50;;;;;;222522;1263;25211;-48
2023/04/21 06:43:26;;;;;;;9.00;5.80;;;23.00;62.20;;;;;;222155;1253;22515;-48
2023/04/21 06:48:30;;;;;;;13.00;5.40;;;23.00;62.10;;;;;;222367;1263;23907;-46
2023/04/21 06:53:34;;;;;;;11.90;6.20;;;23.00;62.00;;;;;;222315;1256;25334;-50
2023/04/21 06:58:38;;;;;;;10.40;7.70;;;22.90;61.10;;;;;;222178;1253;22530;-50
2023/04/21 07:03:42;;;;;;;8.40;7.10;;;22.60;56.00;;;;;;222004;1263;22687;-52
2023/04/21 07:08:46;;;;;;;9.00;7.40;;;22.60;57.70;;;;;;222047;1254;22666;-46
2023/04/21 07:13:50;;;;;;;13.70;7.20;;;22.60;58.00;;;;;;222123;1253;23920;-50
2023/04/21 07:18:55;;;;;;;12.70;7.30;;;22.70;58.20;;;;;;222167;1263;24363;-47
2023/04/21 07:23:59;;;;;;;11.40;7.50;;;22.70;58.40;;;;;;222167;1254;22880;-49
2023/04/21 07:29:03;;;;;;;11.80;7.20;;;22.70;58.70;;;;;;222100;1257;22547;-46
2023/04/21 07:34:07;;;;;;;10.90;8.70;;;22.70;58.50;;;;;;222163;1257;23949;-53
2023/04/21 07:39:11;;;;;;;13.70;8.70;;;22.50;55.10;;;;;;222241;1263;24222;-51
2023/04/21 07:44:15;;;;;;;13.10;7.90;;;22.70;54.50;;;;;;222313;1256;23916;-50
2023/04/21 07:49:19;;;;;;;8.30;7.50;;;22.70;55.50;;;;;;222237;1263;22518;-50
2023/04/21 07:54:24;;;;;;;10.30;7.60;;;22.80;56.00;;;;;;222304;1254;22524;-49
2023/04/21 07:59:28;;;;;;;12.80;8.20;;;22.70;56.60;;;;;;222187;1261;25290;-47
2023/04/21 08:04:32;;;;;;;9.10;8.00;;;22.70;56.60;;;;;;222033;1259;24172;-47
2023/04/21 08:09:37;;;;;;;9.90;7.90;;;22.60;56.80;;;;;;222092;1265;22570;-48
2023/04/21 08:14:41;;;;;;;8.80;7.80;;;22.60;57.00;;;;;;222337;1265;25723;-50
2023/04/21 08:19:45;;;;;;;9.30;7.20;;;22.60;57.10;;;;;;222403;1269;24414;-49
2023/04/21 08:24:49;;;;;;;9.20;7.70;;;22.60;57.10;;;;;;222252;1253;22525;-46
2023/04/21 08:29:53;;;;;;;9.10;7.80;;;22.60;57.30;;;;;;222268;1253;22488;-51
2023/04/21 08:34:57;;;;;;;8.00;7.20;;;22.60;57.10;;;;;;222108;1261;23063;-49
2023/04/21 08:40:03;;;;;;;10.00;7.40;;;22.60;57.30;;;;;;222343;1250;24241;-50
2023/04/21 08:45:08;;;;;;;9.20;7.30;;;22.60;57.30;;;;;;222341;1256;22748;-49
2023/04/21 08:50:13;;;;;;;7.80;7.10;;;22.70;57.00;;;;;;222401;1261;24315;-50
2023/04/21 08:55:17;;;;;;;7.30;6.70;;;22.80;57.10;;;;;;222387;1253;24331;-46
2023/04/21 09:00:22;;;;;;;7.80;7.10;;;22.70;57.20;;;;;;222391;1256;24212;-51
2023/04/21 09:05:28;;;;;;;7.40;6.70;;;22.70;57.50;;;;;;222451;1266;25312;-47
2023/04/21 09:10:41;;;;;;;7.80;7.10;;;22.80;57.40;;;;;;222282;1264;25341;-47
2023/04/21 09:15:49;;;;;;;;;;;22.80;57.10;;;;;;222336;1263;24199;-48
2023/04/21 09:21:14;;;;;;;7.40;6.70;;;22.90;56.90;;;;;;222524;1253;24371;-48
2023/04/21 09:26:21;;;;;;;8.70;6.90;;;23.00;56.80;;;;;;222339;1253;22626;-49
2023/04/21 09:31:27;;;;;;;8.50;7.60;;;22.80;57.10;;;;;;222556;1263;22509;-46
2023/04/21 09:36:32;;;;;;;11.00;6.40;;;22.80;57.40;;;;;;222390;1254;22596;-49
2023/04/21 09:41:36;;;;;;;8.70;7.30;;;22.80;57.40;;;;;;221990;1261;22652;-50
2023/04/21 09:46:45;;;;;;;7.60;7.00;;;22.80;57.30;;;;;;221873;1263;23882;-47
2023/04/21 09:51:49;;;;;;;8.10;7.30;;;22.80;57.30;;;;;;222094;1263;24229;-48
2023/04/21 09:57:02;;;;;;;8.50;7.20;;;22.90;57.20;;;;;;222163;1254;24400;-49
2023/04/21 10:02:07;;;;;;;7.60;6.80;;;23.00;56.90;;;;;;222237;1256;23876;-49
2023/04/21 10:07:11;;;;;;;7.10;6.50;;;23.00;57.00;;;;;;222418;1253;25386;-51
2023/04/21 10:12:17;;;;;;;7.60;6.80;;;23.00;57.20;;;;;;222201;1253;22511;-47
2023/04/21 10:17:26;;;;;;;6.90;6.30;;;23.10;56.80;;;;;;222096;1263;23870;-48
2023/04/21 10:22:32;;;;;;;7.00;6.40;;;23.10;56.90;;;;;;222153;1263;25315;-48
2023/04/21 10:27:39;;;;;;;7.60;6.80;;;23.20;56.80;;;;;;222185;1262;24245;-50
2023/04/21 10:32:44;;;;;;;8.20;7.30;;;23.20;57.00;;;;;;222163;1256;22519;-50
2023/04/21 10:37:52;;;;;;;11.30;6.70;;;23.10;55.80;;;;;;221988;1263;24321;-49
2023/04/21 10:42:56;;;;;;;7.40;6.70;;;23.20;56.00;;;;;;222372;1263;22514;-45
2023/04/21 10:48:02;;;;;;;7.40;6.80;;;23.30;56.00;;;;;;222148;1258;22592;-48
2023/04/21 10:53:10;;;;;;;7.40;6.80;;;23.30;56.40;;;;;;222217;1266;22788;-46
2023/04/21 10:58:15;;;;;;;8.00;7.10;;;23.30;56.50;;;;;;222065;1254;25245;-46
2023/04/21 11:03:19;;;;;;;8.30;6.40;;;23.30;56.10;;;;;;222197;1263;22520;-46
2023/04/21 11:08:23;;;;;;;7.00;6.40;;;23.40;55.90;;;;;;222058;1263;23925;-47
2023/04/21 11:13:33;;;;;;;6.90;6.20;;;23.40;55.90;;;;;;222252;1246;22762;-48
2023/04/21 11:18:42;;;;;;;7.10;6.50;;;23.40;55.70;;;;;;222280;1255;24075;-49
2023/04/21 11:23:52;;;;;;;7.30;6.30;;;23.40;55.60;;;;;;222291;1257;25356;-47
2023/04/21 11:29:00;;;;;;;6.20;5.70;;;23.50;55.60;;;;;;222040;1258;25328;-48
2023/04/21 11:34:05;;;;;;;6.90;6.30;;;23.50;55.50;;;;;;222251;1263;25357;-49
2023/04/21 11:39:12;;;;;;;6.70;6.20;;;23.50;56.10;;;;;;222155;1246;23896;-48
2023/04/21 11:44:35;;;;;;;6.90;6.30;;;23.50;55.40;;;;;;222280;1256;24213;-47
2023/04/21 11:49:53;;;;;;;6.00;5.60;;;23.50;55.50;;;;;;222118;1263;22632;-46
2023/04/21 11:55:10;;;;;;;6.40;5.90;;;23.50;55.40;;;;;;222117;1263;22578;-47
2023/04/21 12:00:15;;;;;;;6.50;6.00;;;23.60;55.40;;;;;;222240;1256;22501;-48
2023/04/21 12:05:19;;;;;;;7.40;5.90;;;23.60;55.30;;;;;;222119;1263;22508;-47
2023/04/21 12:10:23;;;;;;;6.80;5.90;;;23.60;55.30;;;;;;221838;1256;22693;-47
2023/04/21 12:15:29;;;;;;;7.00;5.90;;;23.60;55.10;;;;;;221972;1256;22627;-47
2023/04/21 12:20:33;;;;;;;6.50;5.90;;;23.60;55.00;;;;;;222177;1263;24297;-48
2023/04/21 12:25:39;;;;;;;7.30;5.90;;;23.70;54.90;;;;;;221953;1249;23918;-49
2023/04/21 12:30:43;;;;;;;6.00;5.60;;;23.80;54.80;;;;;;221897;1256;23917;-46
2023/04/21 12:35:48;;;;;;;6.10;5.70;;;23.80;54.80;;;;;;221927;1265;22615;-50
2023/04/21 12:40:52;;;;;;;6.60;6.10;;;23.80;54.60;;;;;;222184;1262;25485;-50
2023/04/21 12:45:55;;;;;;;6.40;5.90;;;23.80;54.70;;;;;;222033;1267;22778;-50
2023/04/21 12:50:59;;;;;;;6.30;5.60;;;23.70;54.90;;;;;;222142;1254;22530;-49
2023/04/21 12:56:04;;;;;;;6.50;6.00;;;23.70;54.50;;;;;;222010;1263;22518;-47
2023/04/21 13:01:08;;;;;;;6.00;5.50;;;23.80;54.80;;;;;;222262;1263;22634;-54
2023/04/21 13:06:12;;;;;;;5.70;5.20;;;23.70;54.70;;;;;;221960;1265;22517;-49
2023/04/21 13:11:16;;;;;;;6.70;6.10;;;23.70;53.90;;;;;;222224;1254;22658;-50
2023/04/21 13:16:20;;;;;;;6.90;6.00;;;23.70;54.20;;;;;;222330;1247;23919;-48
2023/04/21 13:21:25;;;;;;;5.60;5.20;;;23.70;54.40;;;;;;222423;1257;25392;-47
2023/04/21 13:26:32;;;;;;;6.50;5.90;;;23.60;54.10;;;;;;222380;1265;22591;-48
2023/04/21 13:31:36;;;;;;;6.20;5.70;;;23.60;54.40;;;;;;222269;1266;24353;-48
2023/04/21 13:36:40;;;;;;;6.60;6.00;;;23.60;54.00;;;;;;222305;1263;25265;-51
2023/04/21 13:41:44;;;;;;;7.20;6.50;;;23.60;54.70;;;;;;222126;1265;25338;-45
2023/04/21 13:46:50;;;;;;;6.00;5.60;;;23.60;54.40;;;;;;222220;1266;26624;-51
2023/04/21 13:51:55;;;;;;;6.40;5.80;;;23.60;54.10;;;;;;222182;1265;22636;-46
2023/04/21 13:56:59;;;;;;;6.60;6.10;;;23.60;54.10;;;;;;222412;1263;24187;-48
2023/04/21 14:02:03;;;;;;;6.30;5.60;;;23.60;54.80;;;;;;221978;1263;22579;-47
2023/04/21 14:07:07;;;;;;;5.90;5.40;;;23.60;54.80;;;;;;222316;1263;23904;-49
2023/04/21 14:12:11;;;;;;;6.40;5.90;;;23.60;54.70;;;;;;222161;1259;22527;-49
2023/04/21 14:17:15;;;;;;;5.80;5.40;;;23.50;54.90;;;;;;222426;1254;24065;-47
2023/04/21 14:22:20;;;;;;;6.80;6.00;;;23.60;54.90;;;;;;222531;1261;25398;-49
2023/04/21 14:27:23;;;;;;;7.00;5.80;;;23.60;56.20;;;;;;222369;1263;25831;-45
2023/04/21 14:32:27;;;;;;;8.20;7.40;;;23.70;55.60;;;;;;222101;1265;23390;-49
2023/04/21 14:37:32;;;;;;;8.30;7.50;;;23.60;53.10;;;;;;222189;1264;22790;-50
2023/04/21 14:42:36;;;;;;;20.10;9.00;;;23.60;54.10;;;;;;222445;1247;22524;-48
2023/04/21 14:47:41;;;;;;;12.00;8.40;;;23.70;55.20;;;;;;222152;1266;22547;-48
2023/04/21 14:52:48;;;;;;;9.40;6.70;;;23.70;60.30;;;;;;222261;1259;23146;-49
2023/04/21 14:57:52;;;;;;;11.20;6.80;;;23.70;58.10;;;;;;222199;1269;24331;-50
2023/04/21 15:02:57;;;;;;;10.10;7.10;;;23.90;59.20;;;;;;222226;1268;22620;-47
2023/04/21 15:08:02;;;;;;;10.20;7.10;;;23.80;57.60;;;;;;222125;1261;23139;-50
2023/04/21 15:13:06;;;;;;;7.80;6.70;;;23.70;57.60;;;;;;222107;1254;24308;-50
2023/04/21 15:18:10;;;;;;;8.30;6.70;;;23.60;57.00;;;;;;222284;1263;24342;-46
2023/04/21 15:23:14;;;;;;;15.70;6.90;;;23.70;58.70;;;;;;222210;1269;22523;-47
2023/04/21 15:28:19;;;;;;;10.50;7.10;;;23.70;58.60;;;;;;222239;1262;24237;-48
2023/04/21 15:33:23;;;;;;;12.80;7.10;;;23.80;57.50;;;;;;222241;1263;25617;-48
2023/04/21 15:38:27;;;;;;;12.50;6.90;;;23.60;57.10;;;;;;221959;1263;22627;-49
2023/04/21 15:43:31;;;;;;;13.00;6.60;;;23.60;57.50;;;;;;222180;1266;23776;-47
2023/04/21 15:48:36;;;;;;;11.90;8.20;;;23.60;57.60;;;;;;222306;1253;24167;-47
2023/04/21 15:53:46;;;;;;;9.70;8.60;;;23.60;57.50;;;;;;222109;1263;22532;-50
2023/04/21 15:58:50;;;;;;;8.10;7.10;;;23.60;57.50;;;;;;222031;1262;23930;-51
2023/04/21 16:03:54;;;;;;;8.90;7.20;;;23.60;57.10;;;;;;222215;1260;22515;-48
2023/04/21 16:08:59;;;;;;;7.50;6.60;;;23.50;57.40;;;;;;222221;1267;22549;-48
2023/04/21 16:14:03;;;;;;;8.90;6.40;;;23.40;56.80;;;;;;221908;1269;22820;-48
2023/04/21 16:19:07;;;;;;;8.90;7.60;;;23.40;57.10;;;;;;221819;1257;25031;-48
2023/04/21 16:24:11;;;;;;;9.60;6.80;;;23.40;56.00;;;;;;221993;1266;22626;-50
2023/04/21 16:29:15;;;;;;;7.50;6.60;;;23.40;56.20;;;;;;222228;1262;23315;-45
2023/04/21 16:34:19;;;;;;;10.30;7.00;;;23.60;56.10;;;;;;221806;1264;22652;-45
2023/04/21 16:39:24;;;;;;;9.00;7.50;;;23.30;56.10;;;;;;222085;1257;22518;-46
2023/04/21 16:44:28;;;;;;;7.20;6.30;;;23.30;56.40;;;;;;222044;1263;22847;-46
2023/04/21 16:49:32;;;;;;;7.30;6.60;;;23.30;56.60;;;;;;221808;1247;22590;-48
2023/04/21 16:54:36;;;;;;;7.60;6.90;;;23.30;55.90;;;;;;222030;1269;22518;-48
2023/04/21 16:59:41;;;;;;;7.40;6.70;;;23.30;55.60;;;;;;221975;1263;22692;-46
2023/04/21 17:04:45;;;;;;;10.90;8.40;;;23.20;55.60;;;;;;221906;1254;22527;-46
2023/04/21 17:09:50;;;;;;;7.50;6.50;;;23.20;55.40;;;;;;222120;1264;22927;-46
2023/04/21 17:14:54;;;;;;;7.90;6.90;;;23.20;55.50;;;;;;222401;1266;24187;-46
2023/04/21 17:19:58;;;;;;;7.10;6.40;;;23.20;55.20;;;;;;222217;1261;22531;-44
2023/04/21 17:25:04;;;;;;;7.40;6.80;;;23.20;54.70;;;;;;222460;1263;24345;-51
2023/04/21 17:30:09;;;;;;;7.60;7.00;;;23.20;54.80;;;;;;222295;1264;22527;-49
2023/04/21 17:35:13;;;;;;;6.90;6.30;;;23.20;55.30;;;;;;222504;1263;22550;-45
2023/04/21 17:40:17;;;;;;;7.30;6.60;;;23.10;54.80;;;;;;222255;1266;22560;-46
2023/04/21 17:45:22;;;;;;;6.80;6.20;;;23.10;54.30;;;;;;222495;1254;22510;-47
2023/04/21 17:50:26;;;;;;;6.90;6.30;;;23.10;54.70;;;;;;222376;1263;24269;-47
2023/04/21 17:55:30;;;;;;;7.40;6.70;;;23.10;54.40;;;;;;222305;1264;25507;-48
2023/04/21 18:00:35;;;;;;;7.30;6.70;;;23.00;54.40;;;;;;222255;1250;22507;-49
2023/04/21 18:05:39;;;;;;;7.40;6.70;;;23.00;54.50;;;;;;222399;1266;24203;-46
2023/04/21 18:10:44;;;;;;;7.90;7.30;;;23.00;54.60;;;;;;222546;1266;25151;-47
2023/04/21 18:15:48;;;;;;;7.00;6.40;;;23.00;54.90;;;;;;222207;1256;24335;-52
2023/04/21 18:20:52;;;;;;;6.90;6.30;;;22.90;55.20;;;;;;222263;1266;22518;-49
2023/04/21 18:25:58;;;;;;;6.70;6.20;;;22.90;55.20;;;;;;222212;1263;178477;-47
2023/04/21 18:31:04;;;;;;;7.40;6.70;;;22.90;55.40;;;;;;222118;1266;25128;-48
2023/04/21 18:36:07;;;;;;;7.30;6.60;;;22.90;55.10;;;;;;222112;1269;22626;-50
2023/04/21 18:41:12;;;;;;;7.60;6.90;;;22.80;55.20;;;;;;222081;1254;25314;-50
2023/04/21 18:46:17;;;;;;;10.30;6.80;;;22.80;54.70;;;;;;222218;1256;22639;-50
2023/04/21 18:51:22;;;;;;;12.40;6.80;;;22.80;54.70;;;;;;222218;1263;25476;-47
2023/04/21 18:56:27;;;;;;;8.80;6.60;;;23.00;55.00;;;;;;222355;1263;22513;-50
2023/04/21 19:01:32;;;;;;;11.00;6.70;;;23.00;55.30;;;;;;222092;1263;24247;-45
2023/04/21 19:06:38;;;;;;;11.40;6.30;;;23.00;54.80;;;;;;222293;1263;25499;-47
2023/04/21 19:11:43;;;;;;;10.80;6.80;;;23.10;55.10;;;;;;222131;1266;24193;-48
2023/04/21 19:16:51;;;;;;;22.50;7.20;;;23.10;55.10;;;;;;222370;1264;24247;-47
2023/04/21 19:21:59;;;;;;;10.60;6.40;;;23.00;55.50;;;;;;222097;1268;25217;-47
2023/04/21 19:27:05;;;;;;;13.10;6.80;;;23.20;55.00;;;;;;222339;1267;23916;-47
2023/04/21 19:32:10;;;;;;;18.40;6.50;;;23.10;55.50;;;;;;222422;1257;24319;-48
2023/04/21 19:37:15;;;;;;;12.30;6.70;;;23.00;56.10;;;;;;222366;1266;22639;-46
2023/04/21 19:42:21;;;;;;;20.40;7.10;;;23.10;56.70;;;;;;222151;1266;22636;-50
2023/04/21 19:47:27;;;;;;;10.90;6.80;;;23.30;56.40;;;;;;222120;1263;22592;-47
2023/04/21 19:52:33;;;;;;;21.10;6.70;;;23.20;55.80;;;;;;222376;1254;22511;-44
2023/04/21 19:57:38;;;;;;;13.20;6.30;;;23.20;56.00;;;;;;222272;1266;23815;-47
2023/04/21 20:02:44;;;;;;;26.30;7.10;;;23.10;55.40;;;;;;222299;1260;24203;-46
2023/04/21 20:07:52;;;;;;;17.40;6.50;;;23.20;56.30;;;;;;222512;1259;25322;-45
2023/04/21 20:13:00;;;;;;;31.20;7.70;;;23.20;56.40;;;;;;221997;1266;22518;-44
2023/04/21 20:18:07;;;;;;;15.20;6.70;;;23.10;56.90;;;;;;222360;1266;25269;-45
2023/04/21 20:23:18;;;;;;;19.30;6.60;;;23.10;56.60;;;;;;222372;1266;24303;-48
2023/04/21 20:28:27;;;;;;;11.70;6.70;;;23.00;57.20;;;;;;222399;1266;22514;-47
2023/04/21 20:33:32;;;;;;;14.00;7.10;;;22.90;57.50;;;;;;222279;1263;22640;-49
2023/04/21 20:38:37;;;;;;;21.30;6.80;;;23.00;57.40;;;;;;222249;1252;23896;-46
2023/04/21 20:43:42;;;;;;;18.40;7.50;;;22.90;57.80;;;;;;222372;1263;22530;-46
2023/04/21 20:48:46;;;;;;;17.00;7.00;;;22.90;58.30;;;;;;222236;1263;22521;-50
2023/04/21 20:53:50;;;;;;;13.70;6.70;;;23.00;62.60;;;;;;222334;1269;22512;-49
2023/04/21 20:58:55;;;;;;;14.60;6.60;;;23.00;61.70;;;;;;222289;1263;25259;-46
2023/04/21 21:04:00;;;;;;;14.10;7.60;;;23.00;62.60;;;;;;222220;1269;24664;-47
2023/04/21 21:09:05;;;;;;;20.10;7.80;;;22.90;62.90;;;;;;222116;1247;24288;-45
2023/04/21 21:14:08;;;;;;;15.40;7.70;;;22.90;62.80;;;;;;222250;1263;24356;-46
2023/04/21 21:19:13;;;;;;;11.00;6.60;;;22.90;62.70;;;;;;222208;1269;22602;-46
2023/04/21 21:24:17;;;;;;;11.60;6.80;;;22.80;62.60;;;;;;222295;1269;24207;-46
2023/04/21 21:29:21;;;;;;;10.50;6.60;;;22.90;62.60;;;;;;222465;1263;22702;-46
2023/04/21 21:34:25;;;;;;;10.00;6.60;;;22.80;62.20;;;;;;222203;1266;24180;-48
2023/04/21 21:39:29;;;;;;;14.30;6.80;;;22.80;62.30;;;;;;222601;1255;24369;-45
2023/04/21 21:44:35;;;;;;;8.80;6.40;;;22.90;62.10;;;;;;222287;1262;22533;-44
2023/04/21 21:49:40;;;;;;;16.60;6.80;;;22.80;61.90;;;;;;222304;1269;24308;-47
2023/04/21 21:54:44;;;;;;;9.50;6.50;;;22.80;61.80;;;;;;222433;1263;23044;-45
2023/04/21 21:59:48;;;;;;;9.10;6.20;;;22.70;61.40;;;;;;222313;1263;23880;-47
2023/04/21 22:04:54;;;;;;;9.40;5.70;;;22.70;61.60;;;;;;222270;1269;22543;-48
2023/04/21 22:09:58;;;;;;;7.90;5.80;;;22.70;61.50;;;;;;222386;1257;22633;-44
2023/04/21 22:15:03;;;;;;;8.50;5.80;;;22.70;61.40;;;;;;222156;1257;22725;-46
2023/04/21 22:20:07;;;;;;;9.80;6.20;;;22.70;61.70;;;;;;222154;1265;22527;-45
2023/04/21 22:25:11;;;;;;;9.20;5.70;;;22.60;61.30;;;;;;222264;1269;22532;-46
2023/04/21 22:30:15;;;;;;;5.30;4.80;;;22.60;61.20;;;;;;222194;1263;23924;-45
2023/04/21 22:35:19;;;;;;;7.00;5.20;;;22.60;60.90;;;;;;222050;1269;23394;-43
2023/04/21 22:40:23;;;;;;;6.60;5.40;;;22.50;61.00;;;;;;222367;1252;24289;-43
2023/04/21 22:45:28;;;;;;;7.70;5.60;;;22.50;61.10;;;;;;221930;1267;23887;-44
2023/04/21 22:50:33;;;;;;;10.40;5.70;;;22.50;60.90;;;;;;221994;1264;24274;-44
2023/04/21 22:55:37;;;;;;;8.80;5.80;;;22.50;60.80;;;;;;222035;1269;25446;-46
2023/04/21 23:00:42;;;;;;;7.70;5.90;;;22.40;60.70;;;;;;222078;1254;22680;-43
2023/04/21 23:05:47;;;;;;;7.10;5.50;;;22.40;60.60;;;;;;222032;1264;22765;-47
2023/04/21 23:10:51;;;;;;;6.10;5.20;;;22.40;60.70;;;;;;222198;1254;22751;-44
2023/04/21 23:15:55;;;;;;;6.80;5.00;;;22.40;60.40;;;;;;229825;1264;22176;-46
2023/04/21 23:20:59;;;;;;;8.20;4.90;;;22.60;59.90;;;;;;229805;1264;23637;-44
2023/04/21 23:26:03;;;;;;;8.20;5.90;;;22.60;59.30;;;;;;222235;1267;24352;-43
2023/04/21 23:31:08;;;;;;;6.90;5.50;;;22.60;59.30;;;;;;222185;1264;22769;-48
2023/04/21 23:36:12;;;;;;;6.10;5.00;;;22.50;59.60;;;;;;221924;1264;22867;-45
2023/04/21 23:41:16;;;;;;;6.50;5.10;;;22.40;59.80;;;;;;221993;1267;22517;-45
2023/04/21 23:46:20;;;;;;;5.20;4.80;;;22.30;60.10;;;;;;221961;1269;22545;-45
2023/04/21 23:51:24;;;;;;;5.50;4.90;;;22.30;59.90;;;;;;221916;1254;25393;-43
2023/04/21 23:56:28;;;;;;;5.30;4.80;;;22.30;59.80;;;;;;221830;1267;22700;-45
